DTMB/MIR METAR and TAF weather

Enter ICAO airport designator
Station Type Date Time Source
DTMB METAR 2021/02/25 16:30 UTC NOAA

DTMB 251630Z 09008KT CAVOK 15/11 Q1029 NOSIG


Station Type Date Time Source
DTMB Decoded METAR 2021/02/25 16:30 UTC NOAA

Habib Bourguiba , Tunisia (DTMB) 35-46N 010-45E
Feb 25, 2021 - 11:30 AM EST / 2021.02.25 1630 UTC
Wind: from the E (090 degrees) at 9 MPH (8 KT):0
Visibility: greater than 7 mile(s):0
Temperature: 59 F (15 C)
Dew Point: 51 F (11 C)
Relative Humidity: 76%
Pressure (altimeter): 30.39 in. Hg (1029 hPa)
ob: DTMB 251630Z 09008KT CAVOK 15/11 Q1029 NOSIG
cycle: 16

Station Type Date Time Source
DTMB TAF 2021/02/25 12:28 UTC NOAA

TAF DTMB 251100Z 2512/2612 36006KT 8000 SCT026
BECMG 2514/2516 09011KT PROB40 2602/2606 4000 BR PROB40 2606/2609 0500 FG

Example: see airport list